sensor_id;sensor_type;location;lat;lon;timestamp;temperature;humidity
34574;DHT22;20809;49.594;8.734;2023-03-24T00:01:36;13.50;99.90
34574;DHT22;20809;49.594;8.734;2023-03-24T00:04:39;13.30;99.90
34574;DHT22;20809;49.594;8.734;2023-03-24T00:07:45;13.30;99.90
34574;DHT22;20809;49.594;8.734;2023-03-24T00:10:47;13.20;99.90
34574;DHT22;20809;49.594;8.734;2023-03-24T00:13:49;13.10;99.90
34574;DHT22;20809;49.594;8.734;2023-03-24T00:16:52;13.10;99.90
34574;DHT22;20809;49.594;8.734;2023-03-24T00:19:55;13.00;99.90
34574;DHT22;20809;49.594;8.734;2023-03-24T00:23:01;13.10;99.90
34574;DHT22;20809;49.594;8.734;2023-03-24T00:26:10;13.00;99.90
34574;DHT22;20809;49.594;8.734;2023-03-24T00:29:16;13.10;99.90
34574;DHT22;20809;49.594;8.734;2023-03-24T00:32:19;13.20;99.90
34574;DHT22;20809;49.594;8.734;2023-03-24T00:35:23;13.30;99.90
34574;DHT22;20809;49.594;8.734;2023-03-24T00:38:27;13.30;99.90
34574;DHT22;20809;49.594;8.734;2023-03-24T00:41:30;13.30;99.90
34574;DHT22;20809;49.594;8.734;2023-03-24T00:44:32;13.30;99.90
34574;DHT22;20809;49.594;8.734;2023-03-24T00:47:34;13.30;99.90
34574;DHT22;20809;49.594;8.734;2023-03-24T00:50:48;13.30;99.90
34574;DHT22;20809;49.594;8.734;2023-03-24T00:53:50;13.20;99.90
34574;DHT22;20809;49.594;8.734;2023-03-24T00:56:57;13.20;99.90
34574;DHT22;20809;49.594;8.734;2023-03-24T01:00:06;13.20;99.90
34574;DHT22;20809;49.594;8.734;2023-03-24T01:03:18;13.10;99.90
34574;DHT22;20809;49.594;8.734;2023-03-24T01:06:23;13.00;99.90
34574;DHT22;20809;49.594;8.734;2023-03-24T01:09:25;13.00;99.90
34574;DHT22;20809;49.594;8.734;2023-03-24T01:12:35;12.90;99.90
34574;DHT22;20809;49.594;8.734;2023-03-24T01:15:38;12.90;99.90
34574;DHT22;20809;49.594;8.734;2023-03-24T01:18:41;13.00;99.90
34574;DHT22;20809;49.594;8.734;2023-03-24T01:21:44;13.00;99.90
34574;DHT22;20809;49.594;8.734;2023-03-24T01:24:48;13.10;99.90
34574;DHT22;20809;49.594;8.734;2023-03-24T01:27:52;13.20;99.90
34574;DHT22;20809;49.594;8.734;2023-03-24T01:30:55;13.20;99.90
34574;DHT22;20809;49.594;8.734;2023-03-24T01:33:58;13.30;99.90
34574;DHT22;20809;49.594;8.734;2023-03-24T01:37:00;13.30;99.90
34574;DHT22;20809;49.594;8.734;2023-03-24T01:40:03;13.20;99.90
34574;DHT22;20809;49.594;8.734;2023-03-24T01:43:20;13.10;99.90
34574;DHT22;20809;49.594;8.734;2023-03-24T01:46:23;12.90;99.90
34574;DHT22;20809;49.594;8.734;2023-03-24T01:49:30;12.80;99.90
34574;DHT22;20809;49.594;8.734;2023-03-24T01:52:35;12.80;99.90
34574;DHT22;20809;49.594;8.734;2023-03-24T01:59:18;12.90;99.90
34574;DHT22;20809;49.594;8.734;2023-03-24T02:02:20;12.90;99.90
34574;DHT22;20809;49.594;8.734;2023-03-24T02:05:25;13.00;99.90
34574;DHT22;20809;49.594;8.734;2023-03-24T02:08:48;13.10;99.90
34574;DHT22;20809;49.594;8.734;2023-03-24T02:11:52;12.90;99.90
34574;DHT22;20809;49.594;8.734;2023-03-24T02:14:55;12.80;99.90
34574;DHT22;20809;49.594;8.734;2023-03-24T02:18:52;12.80;99.90
34574;DHT22;20809;49.594;8.734;2023-03-24T02:42:30;13.20;99.90
34574;DHT22;20809;49.594;8.734;2023-03-24T02:45:52;13.30;99.90
34574;DHT22;20809;49.594;8.734;2023-03-24T02:52:42;13.40;99.90
34574;DHT22;20809;49.594;8.734;2023-03-24T02:55:56;13.50;99.90
34574;DHT22;20809;49.594;8.734;2023-03-24T02:59:06;13.70;99.90
34574;DHT22;20809;49.594;8.734;2023-03-24T03:02:21;14.00;99.90
34574;DHT22;20809;49.594;8.734;2023-03-24T03:08:41;14.40;99.90
34574;DHT22;20809;49.594;8.734;2023-03-24T03:11:49;14.50;99.90
34574;DHT22;20809;49.594;8.734;2023-03-24T03:15:05;14.50;99.90
34574;DHT22;20809;49.594;8.734;2023-03-24T03:18:19;14.50;99.90
34574;DHT22;20809;49.594;8.734;2023-03-24T03:21:24;14.50;99.90
34574;DHT22;20809;49.594;8.734;2023-03-24T03:24:39;14.50;99.90
34574;DHT22;20809;49.594;8.734;2023-03-24T03:27:41;14.60;99.90
34574;DHT22;20809;49.594;8.734;2023-03-24T03:30:50;14.60;99.90
34574;DHT22;20809;49.594;8.734;2023-03-24T03:34:02;14.70;99.90
34574;DHT22;20809;49.594;8.734;2023-03-24T03:40:54;14.60;99.90
34574;DHT22;20809;49.594;8.734;2023-03-24T03:43:56;14.60;99.90
34574;DHT22;20809;49.594;8.734;2023-03-24T03:46:57;14.60;99.90
34574;DHT22;20809;49.594;8.734;2023-03-24T03:50:00;14.60;99.90
34574;DHT22;20809;49.594;8.734;2023-03-24T03:53:05;14.60;99.90
34574;DHT22;20809;49.594;8.734;2023-03-24T03:56:08;14.70;99.90
34574;DHT22;20809;49.594;8.734;2023-03-24T03:59:25;14.70;99.90
34574;DHT22;20809;49.594;8.734;2023-03-24T04:12:48;14.80;99.90
34574;DHT22;20809;49.594;8.734;2023-03-24T04:39:45;14.40;99.90
34574;DHT22;20809;49.594;8.734;2023-03-24T04:42:55;14.30;99.90
34574;DHT22;20809;49.594;8.734;2023-03-24T04:45:56;14.20;99.90
34574;DHT22;20809;49.594;8.734;2023-03-24T04:48:58;14.10;99.90
34574;DHT22;20809;49.594;8.734;2023-03-24T04:52:02;14.10;99.90
34574;DHT22;20809;49.594;8.734;2023-03-24T04:55:33;14.00;99.90
34574;DHT22;20809;49.594;8.734;2023-03-24T04:58:37;13.90;99.90
34574;DHT22;20809;49.594;8.734;2023-03-24T05:01:38;13.90;99.90
34574;DHT22;20809;49.594;8.734;2023-03-24T05:04:42;13.80;99.90
34574;DHT22;20809;49.594;8.734;2023-03-24T05:07:49;13.60;99.90
34574;DHT22;20809;49.594;8.734;2023-03-24T05:10:52;13.50;99.90
34574;DHT22;20809;49.594;8.734;2023-03-24T05:13:54;13.30;99.90
34574;DHT22;20809;49.594;8.734;2023-03-24T05:17:03;13.10;99.90
34574;DHT22;20809;49.594;8.734;2023-03-24T05:20:06;12.80;99.90
34574;DHT22;20809;49.594;8.734;2023-03-24T05:23:12;12.60;99.90
34574;DHT22;20809;49.594;8.734;2023-03-24T05:26:17;12.50;99.90
34574;DHT22;20809;49.594;8.734;2023-03-24T05:29:23;12.30;99.90
34574;DHT22;20809;49.594;8.734;2023-03-24T05:32:29;12.20;99.90
34574;DHT22;20809;49.594;8.734;2023-03-24T05:35:34;12.10;99.90
34574;DHT22;20809;49.594;8.734;2023-03-24T05:38:41;12.00;99.90
34574;DHT22;20809;49.594;8.734;2023-03-24T05:41:43;11.90;99.90
34574;DHT22;20809;49.594;8.734;2023-03-24T05:44:44;11.90;99.90
34574;DHT22;20809;49.594;8.734;2023-03-24T05:47:46;11.90;99.90
34574;DHT22;20809;49.594;8.734;2023-03-24T05:50:47;12.00;99.90
34574;DHT22;20809;49.594;8.734;2023-03-24T05:53:50;12.00;99.90
34574;DHT22;20809;49.594;8.734;2023-03-24T05:56:51;12.10;99.90
34574;DHT22;20809;49.594;8.734;2023-03-24T05:59:53;12.10;99.90
34574;DHT22;20809;49.594;8.734;2023-03-24T06:02:54;12.10;99.90
34574;DHT22;20809;49.594;8.734;2023-03-24T06:05:55;12.20;99.90
34574;DHT22;20809;49.594;8.734;2023-03-24T06:08:56;12.20;99.90
34574;DHT22;20809;49.594;8.734;2023-03-24T06:11:58;12.30;99.90
34574;DHT22;20809;49.594;8.734;2023-03-24T06:15:00;12.40;99.90
34574;DHT22;20809;49.594;8.734;2023-03-24T06:18:02;12.40;99.90
34574;DHT22;20809;49.594;8.734;2023-03-24T06:21:05;12.50;99.90
34574;DHT22;20809;49.594;8.734;2023-03-24T06:24:06;12.60;99.90
34574;DHT22;20809;49.594;8.734;2023-03-24T06:27:07;12.60;99.90
34574;DHT22;20809;49.594;8.734;2023-03-24T06:30:08;12.70;99.90
34574;DHT22;20809;49.594;8.734;2023-03-24T06:33:10;12.80;99.90
34574;DHT22;20809;49.594;8.734;2023-03-24T06:36:11;12.80;99.90
34574;DHT22;20809;49.594;8.734;2023-03-24T06:39:31;12.80;99.90
34574;DHT22;20809;49.594;8.734;2023-03-24T06:42:33;12.70;99.90
34574;DHT22;20809;49.594;8.734;2023-03-24T06:45:34;12.70;99.90
34574;DHT22;20809;49.594;8.734;2023-03-24T06:48:37;12.60;99.90
34574;DHT22;20809;49.594;8.734;2023-03-24T06:51:48;12.60;99.90
34574;DHT22;20809;49.594;8.734;2023-03-24T06:54:52;12.60;99.90
34574;DHT22;20809;49.594;8.734;2023-03-24T06:57:54;12.60;99.90
34574;DHT22;20809;49.594;8.734;2023-03-24T07:00:59;12.70;99.90
34574;DHT22;20809;49.594;8.734;2023-03-24T07:04:07;12.70;99.90
34574;DHT22;20809;49.594;8.734;2023-03-24T07:07:33;12.70;99.90
34574;DHT22;20809;49.594;8.734;2023-03-24T07:10:40;12.80;99.90
34574;DHT22;20809;49.594;8.734;2023-03-24T07:13:44;12.80;99.90
34574;DHT22;20809;49.594;8.734;2023-03-24T07:17:09;12.80;99.90
34574;DHT22;20809;49.594;8.734;2023-03-24T07:20:56;12.80;99.90
34574;DHT22;20809;49.594;8.734;2023-03-24T07:24:58;12.80;99.90
34574;DHT22;20809;49.594;8.734;2023-03-24T07:28:04;13.10;99.90
34574;DHT22;20809;49.594;8.734;2023-03-24T07:31:04;13.10;99.90
34574;DHT22;20809;49.594;8.734;2023-03-24T07:34:21;13.10;99.90
34574;DHT22;20809;49.594;8.734;2023-03-24T07:37:50;13.10;99.90
34574;DHT22;20809;49.594;8.734;2023-03-24T07:45:18;13.10;99.90
34574;DHT22;20809;49.594;8.734;2023-03-24T07:51:59;13.10;99.90
34574;DHT22;20809;49.594;8.734;2023-03-24T07:59:13;13.20;99.90
34574;DHT22;20809;49.594;8.734;2023-03-24T08:06:07;13.10;99.90
34574;DHT22;20809;49.594;8.734;2023-03-24T08:09:56;13.10;99.90
34574;DHT22;20809;49.594;8.734;2023-03-24T08:13:30;13.00;99.90
34574;DHT22;20809;49.594;8.734;2023-03-24T08:17:11;13.00;99.90
34574;DHT22;20809;49.594;8.734;2023-03-24T08:20:31;13.00;99.90
34574;DHT22;20809;49.594;8.734;2023-03-24T08:23:43;13.00;99.90
34574;DHT22;20809;49.594;8.734;2023-03-24T08:27:06;13.10;99.90
34574;DHT22;20809;49.594;8.734;2023-03-24T08:30:25;13.20;99.90
34574;DHT22;20809;49.594;8.734;2023-03-24T08:33:29;13.30;99.90
34574;DHT22;20809;49.594;8.734;2023-03-24T08:36:53;13.20;99.90
34574;DHT22;20809;49.594;8.734;2023-03-24T08:40:59;13.20;99.90
34574;DHT22;20809;49.594;8.734;2023-03-24T08:44:33;13.20;99.90
34574;DHT22;20809;49.594;8.734;2023-03-24T08:47:34;13.10;99.90
34574;DHT22;20809;49.594;8.734;2023-03-24T08:50:53;13.10;99.90
34574;DHT22;20809;49.594;8.734;2023-03-24T08:54:19;13.10;99.90
34574;DHT22;20809;49.594;8.734;2023-03-24T08:57:23;13.10;99.90
34574;DHT22;20809;49.594;8.734;2023-03-24T09:12:16;13.00;99.90
34574;DHT22;20809;49.594;8.734;2023-03-24T09:15:17;13.10;99.90
34574;DHT22;20809;49.594;8.734;2023-03-24T09:18:20;13.10;99.90
34574;DHT22;20809;49.594;8.734;2023-03-24T09:21:21;13.20;99.90
34574;DHT22;20809;49.594;8.734;2023-03-24T09:24:21;13.10;99.90
34574;DHT22;20809;49.594;8.734;2023-03-24T09:27:22;13.20;99.90
34574;DHT22;20809;49.594;8.734;2023-03-24T09:30:23;13.20;99.90
34574;DHT22;20809;49.594;8.734;2023-03-24T09:33:24;13.20;99.90
34574;DHT22;20809;49.594;8.734;2023-03-24T09:36:25;13.20;99.90
34574;DHT22;20809;49.594;8.734;2023-03-24T09:39:26;13.20;99.90
34574;DHT22;20809;49.594;8.734;2023-03-24T09:42:33;13.20;99.90
34574;DHT22;20809;49.594;8.734;2023-03-24T09:45:38;13.20;99.90
34574;DHT22;20809;49.594;8.734;2023-03-24T09:48:44;13.20;99.90
34574;DHT22;20809;49.594;8.734;2023-03-24T09:51:46;13.20;99.90
34574;DHT22;20809;49.594;8.734;2023-03-24T09:54:49;13.20;99.90
34574;DHT22;20809;49.594;8.734;2023-03-24T09:57:52;13.30;99.90
34574;DHT22;20809;49.594;8.734;2023-03-24T10:00:55;13.30;99.90
34574;DHT22;20809;49.594;8.734;2023-03-24T10:03:57;13.30;99.90
34574;DHT22;20809;49.594;8.734;2023-03-24T10:07:26;13.40;99.90
34574;DHT22;20809;49.594;8.734;2023-03-24T10:10:39;13.40;99.90
34574;DHT22;20809;49.594;8.734;2023-03-24T10:13:53;13.30;99.90
34574;DHT22;20809;49.594;8.734;2023-03-24T10:20:40;13.30;99.90
34574;DHT22;20809;49.594;8.734;2023-03-24T10:27:25;13.50;99.90
34574;DHT22;20809;49.594;8.734;2023-03-24T10:30:30;14.00;99.90
34574;DHT22;20809;49.594;8.734;2023-03-24T10:33:42;14.20;99.90
34574;DHT22;20809;49.594;8.734;2023-03-24T10:36:43;14.20;99.90
34574;DHT22;20809;49.594;8.734;2023-03-24T10:39:44;14.10;99.90
34574;DHT22;20809;49.594;8.734;2023-03-24T10:42:47;14.00;99.90
34574;DHT22;20809;49.594;8.734;2023-03-24T10:45:51;13.80;99.90
34574;DHT22;20809;49.594;8.734;2023-03-24T10:49:41;13.70;99.90
34574;DHT22;20809;49.594;8.734;2023-03-24T10:52:14;13.60;99.90
34574;DHT22;20809;49.594;8.734;2023-03-24T10:55:17;13.50;99.90
34574;DHT22;20809;49.594;8.734;2023-03-24T10:58:42;13.40;99.90
34574;DHT22;20809;49.594;8.734;2023-03-24T11:01:43;13.40;99.90
34574;DHT22;20809;49.594;8.734;2023-03-24T11:04:57;13.40;99.90
34574;DHT22;20809;49.594;8.734;2023-03-24T11:08:40;13.40;99.90
34574;DHT22;20809;49.594;8.734;2023-03-24T11:11:41;13.40;99.90
34574;DHT22;20809;49.594;8.734;2023-03-24T11:14:44;13.30;99.90
34574;DHT22;20809;49.594;8.734;2023-03-24T11:17:47;13.20;99.90
34574;DHT22;20809;49.594;8.734;2023-03-24T11:20:59;13.00;99.90
34574;DHT22;20809;49.594;8.734;2023-03-24T11:24:10;12.80;99.90
34574;DHT22;20809;49.594;8.734;2023-03-24T11:27:13;12.70;99.90
34574;DHT22;20809;49.594;8.734;2023-03-24T11:30:16;12.60;99.90
34574;DHT22;20809;49.594;8.734;2023-03-24T11:33:26;12.60;99.90
34574;DHT22;20809;49.594;8.734;2023-03-24T11:39:30;12.60;99.90
34574;DHT22;20809;49.594;8.734;2023-03-24T11:42:33;12.50;99.90
34574;DHT22;20809;49.594;8.734;2023-03-24T11:45:41;12.50;99.90
34574;DHT22;20809;49.594;8.734;2023-03-24T11:48:46;12.50;99.90
34574;DHT22;20809;49.594;8.734;2023-03-24T11:51:53;12.70;99.90
34574;DHT22;20809;49.594;8.734;2023-03-24T11:54:54;12.80;99.90
34574;DHT22;20809;49.594;8.734;2023-03-24T11:58:28;12.80;99.90
34574;DHT22;20809;49.594;8.734;2023-03-24T12:01:36;12.80;99.90
34574;DHT22;20809;49.594;8.734;2023-03-24T12:04:59;12.70;99.90
34574;DHT22;20809;49.594;8.734;2023-03-24T12:08:22;12.70;99.90
34574;DHT22;20809;49.594;8.734;2023-03-24T12:14:40;12.50;99.90
34574;DHT22;20809;49.594;8.734;2023-03-24T12:17:48;12.60;99.90
34574;DHT22;20809;49.594;8.734;2023-03-24T12:20:58;12.80;99.90
34574;DHT22;20809;49.594;8.734;2023-03-24T12:24:17;13.00;99.90
34574;DHT22;20809;49.594;8.734;2023-03-24T12:34:53;13.20;99.90
34574;DHT22;20809;49.594;8.734;2023-03-24T12:48:50;14.50;99.90
34574;DHT22;20809;49.594;8.734;2023-03-24T12:52:05;15.20;99.90
34574;DHT22;20809;49.594;8.734;2023-03-24T12:55:24;15.50;99.90
34574;DHT22;20809;49.594;8.734;2023-03-24T13:01:51;16.00;99.90
34574;DHT22;20809;49.594;8.734;2023-03-24T13:04:59;16.00;99.90
34574;DHT22;20809;49.594;8.734;2023-03-24T13:08:14;15.80;99.90
34574;DHT22;20809;49.594;8.734;2023-03-24T13:11:19;16.10;99.90
34574;DHT22;20809;49.594;8.734;2023-03-24T13:21:18;16.70;99.90
34574;DHT22;20809;49.594;8.734;2023-03-24T13:24:21;17.20;99.90
34574;DHT22;20809;49.594;8.734;2023-03-24T13:27:24;17.50;99.90
34574;DHT22;20809;49.594;8.734;2023-03-24T13:30:32;17.60;99.90
34574;DHT22;20809;49.594;8.734;2023-03-24T13:33:35;17.70;99.90
34574;DHT22;20809;49.594;8.734;2023-03-24T13:36:50;17.40;99.90
34574;DHT22;20809;49.594;8.734;2023-03-24T13:39:59;17.20;99.90
34574;DHT22;20809;49.594;8.734;2023-03-24T13:43:12;17.10;99.90
34574;DHT22;20809;49.594;8.734;2023-03-24T13:46:17;16.80;99.90
34574;DHT22;20809;49.594;8.734;2023-03-24T13:49:18;16.80;99.90
34574;DHT22;20809;49.594;8.734;2023-03-24T13:52:27;16.80;99.90
34574;DHT22;20809;49.594;8.734;2023-03-24T13:55:30;16.60;99.90
34574;DHT22;20809;49.594;8.734;2023-03-24T14:02:20;16.10;99.90
34574;DHT22;20809;49.594;8.734;2023-03-24T14:08:39;15.60;99.90
34574;DHT22;20809;49.594;8.734;2023-03-24T14:11:42;15.50;99.90
34574;DHT22;20809;49.594;8.734;2023-03-24T14:21:28;15.20;99.90
34574;DHT22;20809;49.594;8.734;2023-03-24T14:24:30;15.20;99.90
34574;DHT22;20809;49.594;8.734;2023-03-24T14:27:40;15.30;99.90
34574;DHT22;20809;49.594;8.734;2023-03-24T14:34:17;15.10;99.90
34574;DHT22;20809;49.594;8.734;2023-03-24T14:37:20;15.30;99.90
34574;DHT22;20809;49.594;8.734;2023-03-24T14:40:24;15.60;99.90
34574;DHT22;20809;49.594;8.734;2023-03-24T14:46:49;16.10;99.90
34574;DHT22;20809;49.594;8.734;2023-03-24T14:49:53;16.20;99.90
34574;DHT22;20809;49.594;8.734;2023-03-24T14:52:59;16.00;99.90
34574;DHT22;20809;49.594;8.734;2023-03-24T14:56:01;15.70;99.90
34574;DHT22;20809;49.594;8.734;2023-03-24T14:59:09;15.60;99.90
34574;DHT22;20809;49.594;8.734;2023-03-24T15:05:38;15.50;99.90
34574;DHT22;20809;49.594;8.734;2023-03-24T15:08:53;15.50;99.90
34574;DHT22;20809;49.594;8.734;2023-03-24T15:11:55;15.60;99.90
34574;DHT22;20809;49.594;8.734;2023-03-24T15:14:58;15.70;99.90
34574;DHT22;20809;49.594;8.734;2023-03-24T15:18:00;15.90;99.90
34574;DHT22;20809;49.594;8.734;2023-03-24T15:21:13;16.00;99.90
34574;DHT22;20809;49.594;8.734;2023-03-24T15:27:24;16.00;99.90
34574;DHT22;20809;49.594;8.734;2023-03-24T15:30:27;16.00;99.90
34574;DHT22;20809;49.594;8.734;2023-03-24T15:33:28;16.00;99.90
34574;DHT22;20809;49.594;8.734;2023-03-24T15:36:38;15.90;99.90
34574;DHT22;20809;49.594;8.734;2023-03-24T15:39:39;16.00;99.90
34574;DHT22;20809;49.594;8.734;2023-03-24T15:42:40;16.40;99.90
34574;DHT22;20809;49.594;8.734;2023-03-24T15:45:44;17.00;99.90
34574;DHT22;20809;49.594;8.734;2023-03-24T15:48:49;17.40;99.90
34574;DHT22;20809;49.594;8.734;2023-03-24T15:55:26;17.60;99.90
34574;DHT22;20809;49.594;8.734;2023-03-24T15:58:28;17.30;99.90
34574;DHT22;20809;49.594;8.734;2023-03-24T16:01:31;16.70;99.90
34574;DHT22;20809;49.594;8.734;2023-03-24T16:04:39;16.30;99.90
34574;DHT22;20809;49.594;8.734;2023-03-24T16:07:40;16.00;99.90
34574;DHT22;20809;49.594;8.734;2023-03-24T16:10:41;15.90;99.90
34574;DHT22;20809;49.594;8.734;2023-03-24T16:13:43;15.90;99.90
34574;DHT22;20809;49.594;8.734;2023-03-24T16:16:46;15.90;99.90
34574;DHT22;20809;49.594;8.734;2023-03-24T16:19:47;15.90;99.90
34574;DHT22;20809;49.594;8.734;2023-03-24T16:22:48;15.70;99.90
34574;DHT22;20809;49.594;8.734;2023-03-24T16:25:48;15.50;99.90
34574;DHT22;20809;49.594;8.734;2023-03-24T16:28:50;15.30;99.90
34574;DHT22;20809;49.594;8.734;2023-03-24T16:31:54;15.20;99.90
34574;DHT22;20809;49.594;8.734;2023-03-24T16:34:55;15.10;99.90
34574;DHT22;20809;49.594;8.734;2023-03-24T16:37:56;15.00;99.90
34574;DHT22;20809;49.594;8.734;2023-03-24T16:40:56;14.80;99.90
34574;DHT22;20809;49.594;8.734;2023-03-24T16:43:58;14.80;99.90
34574;DHT22;20809;49.594;8.734;2023-03-24T16:46:58;14.70;99.90
34574;DHT22;20809;49.594;8.734;2023-03-24T16:49:59;14.60;99.90
34574;DHT22;20809;49.594;8.734;2023-03-24T16:53:00;14.50;99.90
34574;DHT22;20809;49.594;8.734;2023-03-24T16:56:03;14.40;99.90
34574;DHT22;20809;49.594;8.734;2023-03-24T16:59:05;14.30;99.90
34574;DHT22;20809;49.594;8.734;2023-03-24T17:02:08;14.10;99.90
34574;DHT22;20809;49.594;8.734;2023-03-24T17:05:20;13.90;99.90
34574;DHT22;20809;49.594;8.734;2023-03-24T17:08:22;13.80;99.90
34574;DHT22;20809;49.594;8.734;2023-03-24T17:11:28;13.70;99.90
34574;DHT22;20809;49.594;8.734;2023-03-24T17:14:29;13.90;99.90
34574;DHT22;20809;49.594;8.734;2023-03-24T17:17:30;14.10;99.90
34574;DHT22;20809;49.594;8.734;2023-03-24T17:20:31;14.10;99.90
34574;DHT22;20809;49.594;8.734;2023-03-24T17:23:34;14.10;99.90
34574;DHT22;20809;49.594;8.734;2023-03-24T17:26:37;14.20;99.90
34574;DHT22;20809;49.594;8.734;2023-03-24T17:29:38;14.00;99.90
34574;DHT22;20809;49.594;8.734;2023-03-24T17:32:39;13.80;99.90
34574;DHT22;20809;49.594;8.734;2023-03-24T17:35:43;13.70;99.90
34574;DHT22;20809;49.594;8.734;2023-03-24T17:38:44;13.60;99.90
34574;DHT22;20809;49.594;8.734;2023-03-24T17:41:48;13.50;99.90
34574;DHT22;20809;49.594;8.734;2023-03-24T17:44:49;13.40;99.90
34574;DHT22;20809;49.594;8.734;2023-03-24T17:47:50;13.40;99.90
34574;DHT22;20809;49.594;8.734;2023-03-24T17:50:51;13.30;99.90
34574;DHT22;20809;49.594;8.734;2023-03-24T17:53:52;13.30;99.90
34574;DHT22;20809;49.594;8.734;2023-03-24T17:56:53;13.30;99.90
34574;DHT22;20809;49.594;8.734;2023-03-24T17:59:53;13.30;99.90
34574;DHT22;20809;49.594;8.734;2023-03-24T18:02:54;13.30;99.90
34574;DHT22;20809;49.594;8.734;2023-03-24T18:05:55;13.30;99.90
34574;DHT22;20809;49.594;8.734;2023-03-24T18:08:56;13.30;99.90
34574;DHT22;20809;49.594;8.734;2023-03-24T18:11:57;13.20;99.90
34574;DHT22;20809;49.594;8.734;2023-03-24T18:14:58;13.10;99.90
34574;DHT22;20809;49.594;8.734;2023-03-24T18:17:59;13.00;99.90
34574;DHT22;20809;49.594;8.734;2023-03-24T18:21:00;12.90;99.90
34574;DHT22;20809;49.594;8.734;2023-03-24T18:24:01;12.80;99.90
34574;DHT22;20809;49.594;8.734;2023-03-24T18:27:02;12.80;99.90
34574;DHT22;20809;49.594;8.734;2023-03-24T18:30:07;12.60;99.90
34574;DHT22;20809;49.594;8.734;2023-03-24T18:33:08;12.50;99.90
34574;DHT22;20809;49.594;8.734;2023-03-24T18:36:10;12.40;99.90
34574;DHT22;20809;49.594;8.734;2023-03-24T18:39:12;12.20;99.90
34574;DHT22;20809;49.594;8.734;2023-03-24T18:42:12;12.10;99.90
34574;DHT22;20809;49.594;8.734;2023-03-24T18:45:13;12.00;99.90
34574;DHT22;20809;49.594;8.734;2023-03-24T18:48:18;11.90;99.90
34574;DHT22;20809;49.594;8.734;2023-03-24T18:51:20;11.80;99.90
34574;DHT22;20809;49.594;8.734;2023-03-24T18:54:21;11.60;99.90
34574;DHT22;20809;49.594;8.734;2023-03-24T18:57:22;11.50;99.90
34574;DHT22;20809;49.594;8.734;2023-03-24T19:00:22;11.50;99.90
34574;DHT22;20809;49.594;8.734;2023-03-24T19:03:25;11.40;99.90
34574;DHT22;20809;49.594;8.734;2023-03-24T19:06:26;11.40;99.90
34574;DHT22;20809;49.594;8.734;2023-03-24T19:09:30;11.40;99.90
34574;DHT22;20809;49.594;8.734;2023-03-24T19:12:30;11.40;99.90
34574;DHT22;20809;49.594;8.734;2023-03-24T19:15:31;11.40;99.90
34574;DHT22;20809;49.594;8.734;2023-03-24T19:18:35;11.40;99.90
34574;DHT22;20809;49.594;8.734;2023-03-24T19:21:36;11.40;99.90
34574;DHT22;20809;49.594;8.734;2023-03-24T19:24:39;11.40;99.90
34574;DHT22;20809;49.594;8.734;2023-03-24T19:27:40;11.40;99.90
34574;DHT22;20809;49.594;8.734;2023-03-24T19:30:41;11.50;99.90
34574;DHT22;20809;49.594;8.734;2023-03-24T19:33:42;11.60;99.90
34574;DHT22;20809;49.594;8.734;2023-03-24T19:36:43;11.70;99.90
34574;DHT22;20809;49.594;8.734;2023-03-24T19:39:44;11.90;99.90
34574;DHT22;20809;49.594;8.734;2023-03-24T19:42:45;12.00;99.90
34574;DHT22;20809;49.594;8.734;2023-03-24T19:45:53;12.00;99.90
34574;DHT22;20809;49.594;8.734;2023-03-24T19:48:54;12.10;99.90
34574;DHT22;20809;49.594;8.734;2023-03-24T19:51:55;12.10;99.90
34574;DHT22;20809;49.594;8.734;2023-03-24T19:54:56;12.10;99.90
34574;DHT22;20809;49.594;8.734;2023-03-24T19:57:57;12.10;99.90
34574;DHT22;20809;49.594;8.734;2023-03-24T20:00:58;12.10;99.90
34574;DHT22;20809;49.594;8.734;2023-03-24T20:03:59;12.00;99.90
34574;DHT22;20809;49.594;8.734;2023-03-24T20:07:00;11.90;99.90
34574;DHT22;20809;49.594;8.734;2023-03-24T20:10:02;11.80;99.90
34574;DHT22;20809;49.594;8.734;2023-03-24T20:13:03;11.70;99.90
34574;DHT22;20809;49.594;8.734;2023-03-24T20:16:04;11.70;99.90
34574;DHT22;20809;49.594;8.734;2023-03-24T20:19:05;11.70;99.90
34574;DHT22;20809;49.594;8.734;2023-03-24T20:22:05;11.70;99.90
34574;DHT22;20809;49.594;8.734;2023-03-24T20:25:07;11.50;99.90
34574;DHT22;20809;49.594;8.734;2023-03-24T20:28:08;11.40;99.90
34574;DHT22;20809;49.594;8.734;2023-03-24T20:31:09;11.20;99.90
34574;DHT22;20809;49.594;8.734;2023-03-24T20:34:10;11.10;99.90
34574;DHT22;20809;49.594;8.734;2023-03-24T20:37:10;10.90;99.90
34574;DHT22;20809;49.594;8.734;2023-03-24T20:40:11;10.90;99.90
34574;DHT22;20809;49.594;8.734;2023-03-24T20:43:12;10.80;99.90
34574;DHT22;20809;49.594;8.734;2023-03-24T20:46:15;10.70;99.90
34574;DHT22;20809;49.594;8.734;2023-03-24T20:49:17;10.70;99.90
34574;DHT22;20809;49.594;8.734;2023-03-24T20:52:17;10.60;99.90
34574;DHT22;20809;49.594;8.734;2023-03-24T20:55:20;10.50;99.90
34574;DHT22;20809;49.594;8.734;2023-03-24T20:58:21;10.50;99.90
34574;DHT22;20809;49.594;8.734;2023-03-24T21:01:21;10.40;99.90
34574;DHT22;20809;49.594;8.734;2023-03-24T21:04:23;10.40;99.90
34574;DHT22;20809;49.594;8.734;2023-03-24T21:07:24;10.40;99.90
34574;DHT22;20809;49.594;8.734;2023-03-24T21:10:25;10.50;99.90
34574;DHT22;20809;49.594;8.734;2023-03-24T21:13:26;10.50;99.90
34574;DHT22;20809;49.594;8.734;2023-03-24T21:16:27;10.60;99.90
34574;DHT22;20809;49.594;8.734;2023-03-24T21:19:27;10.60;99.90
34574;DHT22;20809;49.594;8.734;2023-03-24T21:22:28;10.50;99.90
34574;DHT22;20809;49.594;8.734;2023-03-24T21:25:37;10.40;99.90
34574;DHT22;20809;49.594;8.734;2023-03-24T21:28:38;10.40;99.90
34574;DHT22;20809;49.594;8.734;2023-03-24T21:31:39;10.20;99.90
34574;DHT22;20809;49.594;8.734;2023-03-24T21:34:42;10.10;99.90
34574;DHT22;20809;49.594;8.734;2023-03-24T21:37:44;10.00;99.90
34574;DHT22;20809;49.594;8.734;2023-03-24T21:40:59;9.90;99.90
34574;DHT22;20809;49.594;8.734;2023-03-24T21:44:00;9.80;99.90
34574;DHT22;20809;49.594;8.734;2023-03-24T21:47:00;9.70;99.90
34574;DHT22;20809;49.594;8.734;2023-03-24T21:50:02;9.60;99.90
34574;DHT22;20809;49.594;8.734;2023-03-24T21:53:04;9.50;99.90
34574;DHT22;20809;49.594;8.734;2023-03-24T21:56:14;9.50;99.90
34574;DHT22;20809;49.594;8.734;2023-03-24T21:59:15;9.50;99.90
34574;DHT22;20809;49.594;8.734;2023-03-24T22:02:15;9.50;99.90
34574;DHT22;20809;49.594;8.734;2023-03-24T22:05:21;9.50;99.90
34574;DHT22;20809;49.594;8.734;2023-03-24T22:08:23;9.50;99.90
34574;DHT22;20809;49.594;8.734;2023-03-24T22:11:25;9.40;99.90
34574;DHT22;20809;49.594;8.734;2023-03-24T22:14:27;9.40;99.90
34574;DHT22;20809;49.594;8.734;2023-03-24T22:17:27;9.40;99.90
34574;DHT22;20809;49.594;8.734;2023-03-24T22:20:28;9.40;99.90
34574;DHT22;20809;49.594;8.734;2023-03-24T22:23:33;9.40;99.90
34574;DHT22;20809;49.594;8.734;2023-03-24T22:26:35;9.40;99.90